sensor_id;sensor_type;location;lat;lon;timestamp;P1;durP1;ratioP1;P2;durP2;ratioP2
73779;SDS011;62093;37.614;15.072;2023-10-13T00:00:27;8.35;;;4.55;;
73779;SDS011;62093;37.614;15.072;2023-10-13T00:03:00;8.20;;;4.17;;
73779;SDS011;62093;37.614;15.072;2023-10-13T00:05:27;6.93;;;3.90;;
73779;SDS011;62093;37.614;15.072;2023-10-13T00:07:57;7.03;;;3.92;;
73779;SDS011;62093;37.614;15.072;2023-10-13T00:10:27;7.07;;;3.78;;
73779;SDS011;62093;37.614;15.072;2023-10-13T00:12:56;8.05;;;4.13;;
73779;SDS011;62093;37.614;15.072;2023-10-13T00:15:40;6.83;;;3.70;;
73779;SDS011;62093;37.614;15.072;2023-10-13T00:18:31;5.88;;;3.50;;
73779;SDS011;62093;37.614;15.072;2023-10-13T00:21:01;7.13;;;4.10;;
73779;SDS011;62093;37.614;15.072;2023-10-13T00:23:50;7.68;;;3.78;;
73779;SDS011;62093;37.614;15.072;2023-10-13T00:26:22;6.47;;;3.83;;
73779;SDS011;62093;37.614;15.072;2023-10-13T00:28:58;6.63;;;3.20;;
73779;SDS011;62093;37.614;15.072;2023-10-13T00:31:42;6.78;;;3.90;;
73779;SDS011;62093;37.614;15.072;2023-10-13T00:34:08;6.43;;;3.80;;
73779;SDS011;62093;37.614;15.072;2023-10-13T00:36:44;6.63;;;3.75;;
73779;SDS011;62093;37.614;15.072;2023-10-13T00:39:33;6.60;;;3.63;;
73779;SDS011;62093;37.614;15.072;2023-10-13T00:42:02;6.70;;;3.47;;
73779;SDS011;62093;37.614;15.072;2023-10-13T00:44:33;8.65;;;4.30;;
73779;SDS011;62093;37.614;15.072;2023-10-13T00:47:09;6.53;;;3.65;;
73779;SDS011;62093;37.614;15.072;2023-10-13T00:49:42;6.82;;;3.63;;
73779;SDS011;62093;37.614;15.072;2023-10-13T00:52:12;6.60;;;3.75;;
73779;SDS011;62093;37.614;15.072;2023-10-13T00:54:41;7.00;;;3.90;;
73779;SDS011;62093;37.614;15.072;2023-10-13T00:57:13;6.53;;;3.40;;
73779;SDS011;62093;37.614;15.072;2023-10-13T00:59:57;7.07;;;4.20;;
73779;SDS011;62093;37.614;15.072;2023-10-13T01:02:24;6.78;;;3.75;;
73779;SDS011;62093;37.614;15.072;2023-10-13T01:05:05;6.65;;;3.72;;
73779;SDS011;62093;37.614;15.072;2023-10-13T01:07:37;7.37;;;3.50;;
73779;SDS011;62093;37.614;15.072;2023-10-13T01:10:03;7.72;;;3.85;;
73779;SDS011;62093;37.614;15.072;2023-10-13T01:12:30;6.97;;;3.83;;
73779;SDS011;62093;37.614;15.072;2023-10-13T01:14:57;6.63;;;3.80;;
73779;SDS011;62093;37.614;15.072;2023-10-13T01:17:25;7.33;;;3.90;;
73779;SDS011;62093;37.614;15.072;2023-10-13T01:19:57;6.18;;;3.72;;
73779;SDS011;62093;37.614;15.072;2023-10-13T01:22:24;6.10;;;3.65;;
73779;SDS011;62093;37.614;15.072;2023-10-13T01:24:50;6.40;;;3.60;;
73779;SDS011;62093;37.614;15.072;2023-10-13T01:27:16;6.90;;;3.72;;
73779;SDS011;62093;37.614;15.072;2023-10-13T01:29:43;7.33;;;3.73;;
73779;SDS011;62093;37.614;15.072;2023-10-13T01:32:24;7.80;;;3.25;;
73779;SDS011;62093;37.614;15.072;2023-10-13T01:34:50;7.05;;;3.70;;
73779;SDS011;62093;37.614;15.072;2023-10-13T01:37:22;7.13;;;4.00;;
73779;SDS011;62093;37.614;15.072;2023-10-13T01:39:48;6.78;;;4.00;;
73779;SDS011;62093;37.614;15.072;2023-10-13T01:42:16;6.20;;;3.87;;
73779;SDS011;62093;37.614;15.072;2023-10-13T01:44:50;6.78;;;3.90;;
73779;SDS011;62093;37.614;15.072;2023-10-13T01:47:16;6.22;;;3.17;;
73779;SDS011;62093;37.614;15.072;2023-10-13T01:49:42;6.95;;;3.70;;
73779;SDS011;62093;37.614;15.072;2023-10-13T01:52:12;6.67;;;3.53;;
73779;SDS011;62093;37.614;15.072;2023-10-13T01:54:42;5.95;;;3.33;;
73779;SDS011;62093;37.614;15.072;2023-10-13T01:57:10;6.28;;;3.25;;
73779;SDS011;62093;37.614;15.072;2023-10-13T01:59:48;6.18;;;3.25;;
73779;SDS011;62093;37.614;15.072;2023-10-13T02:02:15;6.82;;;3.30;;
73779;SDS011;62093;37.614;15.072;2023-10-13T02:05:02;6.63;;;3.33;;
73779;SDS011;62093;37.614;15.072;2023-10-13T02:07:28;6.07;;;3.50;;
73779;SDS011;62093;37.614;15.072;2023-10-13T02:10:00;7.20;;;3.45;;
73779;SDS011;62093;37.614;15.072;2023-10-13T02:12:31;6.85;;;3.65;;
73779;SDS011;62093;37.614;15.072;2023-10-13T02:15:23;6.30;;;3.50;;
73779;SDS011;62093;37.614;15.072;2023-10-13T02:17:52;6.50;;;3.57;;
73779;SDS011;62093;37.614;15.072;2023-10-13T02:20:20;5.93;;;3.40;;
73779;SDS011;62093;37.614;15.072;2023-10-13T02:22:55;6.70;;;3.78;;
73779;SDS011;62093;37.614;15.072;2023-10-13T02:25:21;7.13;;;3.60;;
73779;SDS011;62093;37.614;15.072;2023-10-13T02:28:06;7.00;;;3.83;;
73779;SDS011;62093;37.614;15.072;2023-10-13T02:30:42;7.57;;;4.07;;
73779;SDS011;62093;37.614;15.072;2023-10-13T02:33:14;5.90;;;3.33;;
73779;SDS011;62093;37.614;15.072;2023-10-13T02:35:46;6.30;;;3.35;;
73779;SDS011;62093;37.614;15.072;2023-10-13T02:38:22;7.03;;;3.30;;
73779;SDS011;62093;37.614;15.072;2023-10-13T02:41:13;6.93;;;3.13;;
73779;SDS011;62093;37.614;15.072;2023-10-13T02:43:54;6.83;;;3.53;;
73779;SDS011;62093;37.614;15.072;2023-10-13T02:46:22;6.40;;;3.30;;
73779;SDS011;62093;37.614;15.072;2023-10-13T02:48:49;6.75;;;3.67;;
73779;SDS011;62093;37.614;15.072;2023-10-13T02:51:24;6.72;;;3.38;;
73779;SDS011;62093;37.614;15.072;2023-10-13T02:54:05;6.75;;;3.50;;
73779;SDS011;62093;37.614;15.072;2023-10-13T02:56:38;6.10;;;3.70;;
73779;SDS011;62093;37.614;15.072;2023-10-13T02:59:34;6.95;;;3.72;;
73779;SDS011;62093;37.614;15.072;2023-10-13T03:02:00;6.03;;;3.63;;
73779;SDS011;62093;37.614;15.072;2023-10-13T03:04:32;6.53;;;3.47;;
73779;SDS011;62093;37.614;15.072;2023-10-13T03:06:58;6.20;;;3.23;;
73779;SDS011;62093;37.614;15.072;2023-10-13T03:09:25;6.53;;;3.58;;
73779;SDS011;62093;37.614;15.072;2023-10-13T03:11:51;7.10;;;3.83;;
73779;SDS011;62093;37.614;15.072;2023-10-13T03:14:18;7.32;;;3.67;;
73779;SDS011;62093;37.614;15.072;2023-10-13T03:16:53;6.80;;;3.60;;
73779;SDS011;62093;37.614;15.072;2023-10-13T03:19:21;6.28;;;3.40;;
73779;SDS011;62093;37.614;15.072;2023-10-13T03:21:47;6.10;;;3.53;;
73779;SDS011;62093;37.614;15.072;2023-10-13T03:24:22;5.78;;;3.13;;
73779;SDS011;62093;37.614;15.072;2023-10-13T03:27:01;6.38;;;3.42;;
73779;SDS011;62093;37.614;15.072;2023-10-13T03:29:38;6.93;;;3.50;;
73779;SDS011;62093;37.614;15.072;2023-10-13T03:32:09;7.60;;;3.65;;
73779;SDS011;62093;37.614;15.072;2023-10-13T03:34:40;6.38;;;3.47;;
73779;SDS011;62093;37.614;15.072;2023-10-13T03:37:20;8.30;;;3.50;;
73779;SDS011;62093;37.614;15.072;2023-10-13T03:40:08;6.03;;;3.15;;
73779;SDS011;62093;37.614;15.072;2023-10-13T03:42:47;5.70;;;3.23;;
73779;SDS011;62093;37.614;15.072;2023-10-13T03:45:26;7.10;;;3.70;;
73779;SDS011;62093;37.614;15.072;2023-10-13T03:47:52;6.65;;;3.75;;
73779;SDS011;62093;37.614;15.072;2023-10-13T03:50:19;7.32;;;3.55;;
73779;SDS011;62093;37.614;15.072;2023-10-13T03:52:55;7.45;;;3.42;;
73779;SDS011;62093;37.614;15.072;2023-10-13T03:55:25;6.37;;;3.40;;
73779;SDS011;62093;37.614;15.072;2023-10-13T03:57:54;6.70;;;3.20;;
73779;SDS011;62093;37.614;15.072;2023-10-13T04:00:21;6.38;;;3.25;;
73779;SDS011;62093;37.614;15.072;2023-10-13T04:02:53;6.55;;;3.30;;
73779;SDS011;62093;37.614;15.072;2023-10-13T04:05:33;6.68;;;3.53;;
73779;SDS011;62093;37.614;15.072;2023-10-13T04:08:06;6.70;;;3.07;;
73779;SDS011;62093;37.614;15.072;2023-10-13T04:10:54;6.28;;;3.15;;
73779;SDS011;62093;37.614;15.072;2023-10-13T04:13:21;7.63;;;3.47;;
73779;SDS011;62093;37.614;15.072;2023-10-13T04:16:23;7.10;;;3.50;;
73779;SDS011;62093;37.614;15.072;2023-10-13T04:18:49;8.27;;;4.10;;
73779;SDS011;62093;37.614;15.072;2023-10-13T04:21:34;7.57;;;3.90;;
73779;SDS011;62093;37.614;15.072;2023-10-13T04:24:22;6.72;;;3.40;;
73779;SDS011;62093;37.614;15.072;2023-10-13T04:27:03;7.13;;;3.20;;
73779;SDS011;62093;37.614;15.072;2023-10-13T04:29:41;6.15;;;3.40;;
73779;SDS011;62093;37.614;15.072;2023-10-13T04:32:22;6.53;;;3.50;;
73779;SDS011;62093;37.614;15.072;2023-10-13T04:34:55;6.93;;;3.25;;
73779;SDS011;62093;37.614;15.072;2023-10-13T04:37:26;6.60;;;3.25;;
73779;SDS011;62093;37.614;15.072;2023-10-13T04:39:58;7.43;;;3.50;;
73779;SDS011;62093;37.614;15.072;2023-10-13T04:42:37;6.35;;;3.22;;
73779;SDS011;62093;37.614;15.072;2023-10-13T04:45:18;6.43;;;3.40;;
73779;SDS011;62093;37.614;15.072;2023-10-13T04:48:00;6.53;;;3.42;;
73779;SDS011;62093;37.614;15.072;2023-10-13T04:50:59;7.35;;;3.72;;
73779;SDS011;62093;37.614;15.072;2023-10-13T04:53:44;6.60;;;3.35;;
73779;SDS011;62093;37.614;15.072;2023-10-13T04:56:28;6.75;;;3.63;;
73779;SDS011;62093;37.614;15.072;2023-10-13T04:59:06;6.47;;;3.17;;
73779;SDS011;62093;37.614;15.072;2023-10-13T05:02:01;5.97;;;3.20;;
73779;SDS011;62093;37.614;15.072;2023-10-13T05:04:46;6.68;;;3.47;;
73779;SDS011;62093;37.614;15.072;2023-10-13T05:07:38;5.75;;;3.03;;
73779;SDS011;62093;37.614;15.072;2023-10-13T05:10:23;6.68;;;3.67;;
73779;SDS011;62093;37.614;15.072;2023-10-13T05:13:07;5.93;;;2.93;;
73779;SDS011;62093;37.614;15.072;2023-10-13T05:15:52;6.63;;;3.60;;
73779;SDS011;62093;37.614;15.072;2023-10-13T05:18:37;6.78;;;3.60;;
73779;SDS011;62093;37.614;15.072;2023-10-13T05:21:22;5.80;;;3.30;;
73779;SDS011;62093;37.614;15.072;2023-10-13T05:24:07;6.38;;;3.40;;
73779;SDS011;62093;37.614;15.072;2023-10-13T05:26:51;7.77;;;3.67;;
73779;SDS011;62093;37.614;15.072;2023-10-13T05:29:40;6.10;;;3.50;;
73779;SDS011;62093;37.614;15.072;2023-10-13T05:32:25;7.95;;;4.50;;
73779;SDS011;62093;37.614;15.072;2023-10-13T05:35:09;8.35;;;4.70;;
73779;SDS011;62093;37.614;15.072;2023-10-13T05:37:54;8.25;;;4.45;;
73779;SDS011;62093;37.614;15.072;2023-10-13T05:40:38;9.57;;;5.27;;
73779;SDS011;62093;37.614;15.072;2023-10-13T05:43:23;10.18;;;5.32;;
73779;SDS011;62093;37.614;15.072;2023-10-13T05:46:07;8.00;;;4.28;;
73779;SDS011;62093;37.614;15.072;2023-10-13T05:48:51;9.68;;;5.00;;
73779;SDS011;62093;37.614;15.072;2023-10-13T05:51:23;11.40;;;6.25;;
73779;SDS011;62093;37.614;15.072;2023-10-13T05:54:09;9.23;;;4.87;;
73779;SDS011;62093;37.614;15.072;2023-10-13T05:59:30;7.40;;;4.15;;
73779;SDS011;62093;37.614;15.072;2023-10-13T06:02:16;8.48;;;4.35;;
73779;SDS011;62093;37.614;15.072;2023-10-13T06:05:01;7.40;;;3.90;;
73779;SDS011;62093;37.614;15.072;2023-10-13T06:07:46;7.53;;;4.23;;
73779;SDS011;62093;37.614;15.072;2023-10-13T06:10:31;7.55;;;4.60;;
73779;SDS011;62093;37.614;15.072;2023-10-13T06:13:15;7.47;;;4.20;;
73779;SDS011;62093;37.614;15.072;2023-10-13T06:15:59;8.02;;;4.20;;
73779;SDS011;62093;37.614;15.072;2023-10-13T06:18:43;8.13;;;4.28;;
73779;SDS011;62093;37.614;15.072;2023-10-13T06:21:28;8.07;;;4.73;;
73779;SDS011;62093;37.614;15.072;2023-10-13T06:24:12;7.45;;;4.38;;
73779;SDS011;62093;37.614;15.072;2023-10-13T06:26:56;7.75;;;4.20;;
73779;SDS011;62093;37.614;15.072;2023-10-13T06:29:40;6.65;;;4.03;;
73779;SDS011;62093;37.614;15.072;2023-10-13T06:32:06;7.15;;;4.10;;
73779;SDS011;62093;37.614;15.072;2023-10-13T06:34:38;8.27;;;4.47;;
73779;SDS011;62093;37.614;15.072;2023-10-13T06:37:13;7.43;;;4.13;;
73779;SDS011;62093;37.614;15.072;2023-10-13T06:39:49;7.45;;;3.72;;
73779;SDS011;62093;37.614;15.072;2023-10-13T06:42:15;8.00;;;4.20;;
73779;SDS011;62093;37.614;15.072;2023-10-13T06:44:45;7.38;;;4.22;;
73779;SDS011;62093;37.614;15.072;2023-10-13T06:47:12;6.93;;;4.00;;
73779;SDS011;62093;37.614;15.072;2023-10-13T06:49:41;7.47;;;4.07;;
73779;SDS011;62093;37.614;15.072;2023-10-13T06:52:11;9.07;;;3.97;;
73779;SDS011;62093;37.614;15.072;2023-10-13T06:54:38;7.75;;;3.80;;
73779;SDS011;62093;37.614;15.072;2023-10-13T06:57:08;7.15;;;4.20;;
73779;SDS011;62093;37.614;15.072;2023-10-13T06:59:42;7.57;;;3.87;;
73779;SDS011;62093;37.614;15.072;2023-10-13T07:02:08;7.43;;;3.80;;
73779;SDS011;62093;37.614;15.072;2023-10-13T07:04:47;6.90;;;4.00;;
73779;SDS011;62093;37.614;15.072;2023-10-13T07:07:13;7.30;;;3.83;;
73779;SDS011;62093;37.614;15.072;2023-10-13T07:09:41;7.18;;;3.95;;
73779;SDS011;62093;37.614;15.072;2023-10-13T07:12:23;6.90;;;3.80;;
73779;SDS011;62093;37.614;15.072;2023-10-13T07:14:51;6.82;;;4.28;;
73779;SDS011;62093;37.614;15.072;2023-10-13T07:17:19;7.20;;;4.07;;
73779;SDS011;62093;37.614;15.072;2023-10-13T07:19:54;7.60;;;4.30;;
73779;SDS011;62093;37.614;15.072;2023-10-13T07:22:38;7.68;;;4.00;;
73779;SDS011;62093;37.614;15.072;2023-10-13T07:25:05;8.63;;;4.30;;
73779;SDS011;62093;37.614;15.072;2023-10-13T07:27:32;6.93;;;3.90;;
73779;SDS011;62093;37.614;15.072;2023-10-13T07:30:00;7.38;;;3.85;;
73779;SDS011;62093;37.614;15.072;2023-10-13T07:32:43;7.05;;;3.85;;
73779;SDS011;62093;37.614;15.072;2023-10-13T07:35:12;7.05;;;3.83;;
73779;SDS011;62093;37.614;15.072;2023-10-13T07:37:41;8.03;;;3.93;;
73779;SDS011;62093;37.614;15.072;2023-10-13T07:40:08;7.72;;;4.32;;
73779;SDS011;62093;37.614;15.072;2023-10-13T07:42:56;7.20;;;3.63;;
73779;SDS011;62093;37.614;15.072;2023-10-13T07:45:38;8.55;;;4.30;;
73779;SDS011;62093;37.614;15.072;2023-10-13T07:48:06;7.20;;;3.83;;
73779;SDS011;62093;37.614;15.072;2023-10-13T07:51:02;7.40;;;4.13;;
73779;SDS011;62093;37.614;15.072;2023-10-13T07:53:30;6.45;;;3.35;;
73779;SDS011;62093;37.614;15.072;2023-10-13T07:56:00;7.50;;;3.95;;
73779;SDS011;62093;37.614;15.072;2023-10-13T07:58:33;8.18;;;4.28;;
73779;SDS011;62093;37.614;15.072;2023-10-13T08:01:13;7.95;;;4.40;;
73779;SDS011;62093;37.614;15.072;2023-10-13T08:03:48;7.93;;;4.13;;
73779;SDS011;62093;37.614;15.072;2023-10-13T08:06:29;7.05;;;4.03;;
73779;SDS011;62093;37.614;15.072;2023-10-13T08:08:55;8.13;;;3.80;;
73779;SDS011;62093;37.614;15.072;2023-10-13T08:11:37;8.07;;;3.97;;
73779;SDS011;62093;37.614;15.072;2023-10-13T08:14:04;7.50;;;4.13;;
73779;SDS011;62093;37.614;15.072;2023-10-13T08:16:38;7.00;;;4.07;;
73779;SDS011;62093;37.614;15.072;2023-10-13T08:19:14;6.65;;;3.92;;
73779;SDS011;62093;37.614;15.072;2023-10-13T08:21:43;6.93;;;3.92;;
73779;SDS011;62093;37.614;15.072;2023-10-13T08:24:40;7.00;;;3.97;;
73779;SDS011;62093;37.614;15.072;2023-10-13T08:27:07;6.78;;;3.85;;
73779;SDS011;62093;37.614;15.072;2023-10-13T08:29:42;8.97;;;4.17;;
73779;SDS011;62093;37.614;15.072;2023-10-13T08:32:24;9.55;;;4.60;;
73779;SDS011;62093;37.614;15.072;2023-10-13T08:34:54;7.05;;;3.90;;
73779;SDS011;62093;37.614;15.072;2023-10-13T08:37:21;8.43;;;3.92;;
73779;SDS011;62093;37.614;15.072;2023-10-13T08:39:51;7.63;;;4.30;;
73779;SDS011;62093;37.614;15.072;2023-10-13T08:42:44;7.90;;;4.40;;
73779;SDS011;62093;37.614;15.072;2023-10-13T08:45:11;7.18;;;4.10;;
73779;SDS011;62093;37.614;15.072;2023-10-13T08:47:53;7.30;;;4.07;;
73779;SDS011;62093;37.614;15.072;2023-10-13T08:50:36;7.00;;;4.20;;
73779;SDS011;62093;37.614;15.072;2023-10-13T08:58:32;7.47;;;4.38;;
73779;SDS011;62093;37.614;15.072;2023-10-13T09:04:03;8.15;;;4.90;;
73779;SDS011;62093;37.614;15.072;2023-10-13T09:06:50;6.53;;;3.50;;
73779;SDS011;62093;37.614;15.072;2023-10-13T09:09:33;6.90;;;3.87;;
73779;SDS011;62093;37.614;15.072;2023-10-13T09:12:11;8.02;;;4.20;;
73779;SDS011;62093;37.614;15.072;2023-10-13T09:14:42;7.30;;;4.18;;
73779;SDS011;62093;37.614;15.072;2023-10-13T09:17:10;8.18;;;5.15;;
73779;SDS011;62093;37.614;15.072;2023-10-13T09:19:55;6.80;;;4.20;;
73779;SDS011;62093;37.614;15.072;2023-10-13T09:22:25;8.27;;;4.40;;
73779;SDS011;62093;37.614;15.072;2023-10-13T09:24:56;8.35;;;4.57;;
73779;SDS011;62093;37.614;15.072;2023-10-13T09:27:26;7.70;;;4.28;;
73779;SDS011;62093;37.614;15.072;2023-10-13T09:29:57;7.20;;;4.10;;
73779;SDS011;62093;37.614;15.072;2023-10-13T09:32:35;8.63;;;5.03;;
73779;SDS011;62093;37.614;15.072;2023-10-13T09:35:18;7.53;;;4.18;;
73779;SDS011;62093;37.614;15.072;2023-10-13T09:37:49;8.00;;;4.32;;
73779;SDS011;62093;37.614;15.072;2023-10-13T09:40:16;7.13;;;4.13;;
73779;SDS011;62093;37.614;15.072;2023-10-13T09:43:01;8.43;;;4.47;;
73779;SDS011;62093;37.614;15.072;2023-10-13T09:45:33;6.43;;;3.80;;
73779;SDS011;62093;37.614;15.072;2023-10-13T09:48:09;7.85;;;4.00;;
73779;SDS011;62093;37.614;15.072;2023-10-13T09:50:43;8.20;;;5.13;;
73779;SDS011;62093;37.614;15.072;2023-10-13T09:53:11;9.10;;;4.35;;
73779;SDS011;62093;37.614;15.072;2023-10-13T09:55:49;7.60;;;3.90;;
73779;SDS011;62093;37.614;15.072;2023-10-13T09:58:20;7.20;;;3.97;;
73779;SDS011;62093;37.614;15.072;2023-10-13T10:00:54;7.75;;;4.30;;
73779;SDS011;62093;37.614;15.072;2023-10-13T10:03:23;7.97;;;4.32;;
73779;SDS011;62093;37.614;15.072;2023-10-13T10:06:04;7.78;;;4.70;;
73779;SDS011;62093;37.614;15.072;2023-10-13T10:08:42;8.27;;;4.60;;
73779;SDS011;62093;37.614;15.072;2023-10-13T10:14:10;7.63;;;4.65;;
73779;SDS011;62093;37.614;15.072;2023-10-13T10:19:05;8.40;;;4.27;;
73779;SDS011;62093;37.614;15.072;2023-10-13T10:21:33;8.13;;;4.40;;
73779;SDS011;62093;37.614;15.072;2023-10-13T10:24:01;8.23;;;4.57;;
73779;SDS011;62093;37.614;15.072;2023-10-13T10:26:32;7.53;;;4.45;;
73779;SDS011;62093;37.614;15.072;2023-10-13T10:28:58;7.00;;;4.00;;
73779;SDS011;62093;37.614;15.072;2023-10-13T10:31:33;7.97;;;4.60;;
73779;SDS011;62093;37.614;15.072;2023-10-13T10:34:16;7.00;;;4.07;;
73779;SDS011;62093;37.614;15.072;2023-10-13T10:36:53;9.18;;;4.70;;
73779;SDS011;62093;37.614;15.072;2023-10-13T10:39:20;9.18;;;4.28;;
73779;SDS011;62093;37.614;15.072;2023-10-13T10:42:07;9.83;;;5.53;;
73779;SDS011;62093;37.614;15.072;2023-10-13T10:44:43;7.97;;;4.05;;
73779;SDS011;62093;37.614;15.072;2023-10-13T10:47:10;8.73;;;4.10;;
73779;SDS011;62093;37.614;15.072;2023-10-13T10:49:39;7.05;;;4.05;;
73779;SDS011;62093;37.614;15.072;2023-10-13T10:52:08;7.75;;;4.03;;
73779;SDS011;62093;37.614;15.072;2023-10-13T10:54:44;7.50;;;4.53;;
73779;SDS011;62093;37.614;15.072;2023-10-13T10:57:14;8.13;;;4.32;;
73779;SDS011;62093;37.614;15.072;2023-10-13T10:59:45;8.13;;;4.18;;
73779;SDS011;62093;37.614;15.072;2023-10-13T11:02:11;6.63;;;4.00;;
73779;SDS011;62093;37.614;15.072;2023-10-13T11:04:50;8.57;;;4.38;;
73779;SDS011;62093;37.614;15.072;2023-10-13T11:07:23;8.33;;;4.60;;
73779;SDS011;62093;37.614;15.072;2023-10-13T11:09:50;7.28;;;4.10;;
73779;SDS011;62093;37.614;15.072;2023-10-13T11:12:18;7.20;;;4.07;;
73779;SDS011;62093;37.614;15.072;2023-10-13T11:15:01;7.45;;;4.30;;
73779;SDS011;62093;37.614;15.072;2023-10-13T11:18:00;7.30;;;4.43;;
73779;SDS011;62093;37.614;15.072;2023-10-13T11:20:32;6.97;;;3.97;;
73779;SDS011;62093;37.614;15.072;2023-10-13T11:23:12;7.43;;;4.13;;
73779;SDS011;62093;37.614;15.072;2023-10-13T11:25:41;7.90;;;4.30;;
73779;SDS011;62093;37.614;15.072;2023-10-13T11:28:16;6.45;;;3.80;;
73779;SDS011;62093;37.614;15.072;2023-10-13T11:30:43;7.28;;;4.20;;
73779;SDS011;62093;37.614;15.072;2023-10-13T11:33:15;7.20;;;4.37;;
73779;SDS011;62093;37.614;15.072;2023-10-13T11:35:49;8.30;;;4.20;;
73779;SDS011;62093;37.614;15.072;2023-10-13T11:38:19;7.32;;;4.50;;
73779;SDS011;62093;37.614;15.072;2023-10-13T11:40:57;6.80;;;4.25;;
73779;SDS011;62093;37.614;15.072;2023-10-13T11:43:33;7.30;;;4.55;;
73779;SDS011;62093;37.614;15.072;2023-10-13T11:46:09;7.73;;;4.40;;
73779;SDS011;62093;37.614;15.072;2023-10-13T11:48:35;8.25;;;4.40;;
73779;SDS011;62093;37.614;15.072;2023-10-13T11:51:13;7.10;;;4.40;;
73779;SDS011;62093;37.614;15.072;2023-10-13T11:53:49;8.00;;;4.20;;
73779;SDS011;62093;37.614;15.072;2023-10-13T11:56:19;10.05;;;4.05;;
73779;SDS011;62093;37.614;15.072;2023-10-13T11:58:49;6.63;;;3.80;;
73779;SDS011;62093;37.614;15.072;2023-10-13T12:01:15;7.72;;;4.40;;
73779;SDS011;62093;37.614;15.072;2023-10-13T12:03:44;8.02;;;4.10;;
73779;SDS011;62093;37.614;15.072;2023-10-13T12:06:30;9.45;;;4.10;;
73779;SDS011;62093;37.614;15.072;2023-10-13T12:09:12;7.05;;;4.07;;
73779;SDS011;62093;37.614;15.072;2023-10-13T12:11:42;7.07;;;3.90;;
73779;SDS011;62093;37.614;15.072;2023-10-13T12:14:08;7.60;;;4.43;;
73779;SDS011;62093;37.614;15.072;2023-10-13T12:16:45;8.18;;;4.60;;
73779;SDS011;62093;37.614;15.072;2023-10-13T12:19:19;9.90;;;3.88;;
73779;SDS011;62093;37.614;15.072;2023-10-13T12:21:52;8.20;;;4.43;;
73779;SDS011;62093;37.614;15.072;2023-10-13T12:24:28;8.13;;;4.83;;
73779;SDS011;62093;37.614;15.072;2023-10-13T12:27:08;7.30;;;4.18;;
73779;SDS011;62093;37.614;15.072;2023-10-13T12:30:02;7.53;;;4.05;;
73779;SDS011;62093;37.614;15.072;2023-10-13T12:32:36;8.27;;;4.53;;
73779;SDS011;62093;37.614;15.072;2023-10-13T12:35:02;7.32;;;4.28;;
73779;SDS011;62093;37.614;15.072;2023-10-13T12:37:29;8.83;;;3.90;;
73779;SDS011;62093;37.614;15.072;2023-10-13T12:40:08;9.88;;;4.82;;
73779;SDS011;62093;37.614;15.072;2023-10-13T12:42:53;7.28;;;4.22;;
73779;SDS011;62093;37.614;15.072;2023-10-13T12:45:56;8.98;;;5.32;;
73779;SDS011;62093;37.614;15.072;2023-10-13T12:48:40;8.68;;;4.85;;
73779;SDS011;62093;37.614;15.072;2023-10-13T12:51:24;7.47;;;4.53;;
73779;SDS011;62093;37.614;15.072;2023-10-13T12:53:56;7.93;;;4.78;;
73779;SDS011;62093;37.614;15.072;2023-10-13T12:56:31;8.40;;;5.00;;
73779;SDS011;62093;37.614;15.072;2023-10-13T12:58:56;6.93;;;4.40;;
73779;SDS011;62093;37.614;15.072;2023-10-13T13:01:23;7.60;;;4.60;;
73779;SDS011;62093;37.614;15.072;2023-10-13T13:03:58;8.63;;;4.88;;
73779;SDS011;62093;37.614;15.072;2023-10-13T13:06:25;7.72;;;4.47;;
73779;SDS011;62093;37.614;15.072;2023-10-13T13:08:58;8.27;;;4.38;;
73779;SDS011;62093;37.614;15.072;2023-10-13T13:11:25;8.00;;;4.53;;
73779;SDS011;62093;37.614;15.072;2023-10-13T13:13:55;8.07;;;4.88;;
73779;SDS011;62093;37.614;15.072;2023-10-13T13:16:20;9.38;;;4.80;;
73779;SDS011;62093;37.614;15.072;2023-10-13T13:18:50;7.60;;;4.53;;
73779;SDS011;62093;37.614;15.072;2023-10-13T13:21:16;7.73;;;4.40;;
73779;SDS011;62093;37.614;15.072;2023-10-13T13:23:52;8.23;;;4.70;;
73779;SDS011;62093;37.614;15.072;2023-10-13T13:26:21;7.80;;;4.72;;
73779;SDS011;62093;37.614;15.072;2023-10-13T13:28:48;7.38;;;4.55;;
73779;SDS011;62093;37.614;15.072;2023-10-13T13:31:20;7.90;;;4.60;;
73779;SDS011;62093;37.614;15.072;2023-10-13T13:34:00;7.87;;;4.80;;
73779;SDS011;62093;37.614;15.072;2023-10-13T13:36:26;8.50;;;4.70;;
73779;SDS011;62093;37.614;15.072;2023-10-13T13:38:52;7.85;;;4.75;;
73779;SDS011;62093;37.614;15.072;2023-10-13T13:41:23;8.73;;;5.25;;
73779;SDS011;62093;37.614;15.072;2023-10-13T13:43:49;8.00;;;4.83;;
73779;SDS011;62093;37.614;15.072;2023-10-13T13:46:18;9.15;;;4.95;;
73779;SDS011;62093;37.614;15.072;2023-10-13T13:48:50;7.47;;;4.35;;
73779;SDS011;62093;37.614;15.072;2023-10-13T13:51:23;8.07;;;4.68;;
73779;SDS011;62093;37.614;15.072;2023-10-13T13:53:56;9.13;;;5.30;;
73779;SDS011;62093;37.614;15.072;2023-10-13T13:56:23;6.87;;;3.97;;
73779;SDS011;62093;37.614;15.072;2023-10-13T13:58:56;8.15;;;4.93;;
73779;SDS011;62093;37.614;15.072;2023-10-13T14:01:22;7.70;;;4.50;;
73779;SDS011;62093;37.614;15.072;2023-10-13T14:03:51;7.72;;;4.40;;
73779;SDS011;62093;37.614;15.072;2023-10-13T14:06:18;10.33;;;4.63;;
73779;SDS011;62093;37.614;15.072;2023-10-13T14:08:55;7.45;;;4.68;;
73779;SDS011;62093;37.614;15.072;2023-10-13T14:11:25;6.85;;;4.30;;
73779;SDS011;62093;37.614;15.072;2023-10-13T14:14:05;8.77;;;5.00;;
73779;SDS011;62093;37.614;15.072;2023-10-13T14:16:40;7.43;;;4.75;;
73779;SDS011;62093;37.614;15.072;2023-10-13T14:19:10;7.93;;;4.73;;
73779;SDS011;62093;37.614;15.072;2023-10-13T14:21:37;7.70;;;4.28;;
73779;SDS011;62093;37.614;15.072;2023-10-13T14:24:03;8.23;;;4.57;;
73779;SDS011;62093;37.614;15.072;2023-10-13T14:26:38;8.25;;;4.95;;
73779;SDS011;62093;37.614;15.072;2023-10-13T14:29:05;8.18;;;4.63;;
73779;SDS011;62093;37.614;15.072;2023-10-13T14:31:34;8.10;;;4.87;;
73779;SDS011;62093;37.614;15.072;2023-10-13T14:34:03;7.70;;;5.00;;
73779;SDS011;62093;37.614;15.072;2023-10-13T14:36:29;8.35;;;4.53;;
73779;SDS011;62093;37.614;15.072;2023-10-13T14:39:00;8.43;;;5.25;;
73779;SDS011;62093;37.614;15.072;2023-10-13T14:41:27;7.70;;;4.45;;
73779;SDS011;62093;37.614;15.072;2023-10-13T14:43:53;6.80;;;4.50;;
73779;SDS011;62093;37.614;15.072;2023-10-13T14:46:22;6.90;;;4.20;;
73779;SDS011;62093;37.614;15.072;2023-10-13T14:48:54;7.75;;;4.63;;
73779;SDS011;62093;37.614;15.072;2023-10-13T14:51:20;7.28;;;4.78;;
73779;SDS011;62093;37.614;15.072;2023-10-13T14:53:46;7.85;;;4.63;;
73779;SDS011;62093;37.614;15.072;2023-10-13T14:56:13;7.13;;;4.53;;
73779;SDS011;62093;37.614;15.072;2023-10-13T14:58:40;8.75;;;4.90;;
73779;SDS011;62093;37.614;15.072;2023-10-13T15:01:16;8.05;;;5.13;;
73779;SDS011;62093;37.614;15.072;2023-10-13T15:03:51;7.82;;;4.32;;
73779;SDS011;62093;37.614;15.072;2023-10-13T15:06:24;7.95;;;4.60;;
73779;SDS011;62093;37.614;15.072;2023-10-13T15:08:54;8.10;;;4.73;;
73779;SDS011;62093;37.614;15.072;2023-10-13T15:11:21;8.27;;;4.93;;
73779;SDS011;62093;37.614;15.072;2023-10-13T15:13:55;8.57;;;4.70;;
73779;SDS011;62093;37.614;15.072;2023-10-13T15:16:22;8.10;;;4.72;;
73779;SDS011;62093;37.614;15.072;2023-10-13T15:18:51;7.35;;;4.45;;
73779;SDS011;62093;37.614;15.072;2023-10-13T15:23:52;8.55;;;4.70;;
73779;SDS011;62093;37.614;15.072;2023-10-13T15:26:21;8.00;;;4.60;;
73779;SDS011;62093;37.614;15.072;2023-10-13T15:28:49;7.43;;;4.38;;
73779;SDS011;62093;37.614;15.072;2023-10-13T15:31:21;8.25;;;4.85;;
73779;SDS011;62093;37.614;15.072;2023-10-13T15:34:00;9.43;;;5.43;;